createdAt,value
2022-12-07T00:00:23.082Z,30.70
2022-12-07T00:03:13.871Z,30.13
2022-12-07T00:08:51.294Z,32.87
2022-12-07T00:11:39.972Z,29.43
2022-12-07T00:17:18.721Z,32.60
2022-12-07T00:26:00.952Z,32.27
2022-12-07T00:28:49.968Z,32.43
2022-12-07T00:34:35.049Z,32.60
2022-12-07T00:40:19.493Z,31.90
2022-12-07T00:45:49.393Z,32.60
2022-12-07T00:51:27.948Z,34.63
2022-12-07T00:57:02.952Z,34.80
2022-12-07T01:02:37.905Z,27.77
2022-12-07T01:05:26.059Z,29.97
2022-12-07T01:08:14.976Z,33.10
2022-12-07T01:11:04.794Z,30.27
2022-12-07T01:13:55.085Z,31.63
2022-12-07T01:19:28.276Z,29.80
2022-12-07T01:22:17.272Z,31.37
2022-12-07T01:27:55.512Z,33.60
2022-12-07T01:33:33.661Z,32.40
2022-12-07T01:36:23.600Z,30.13
2022-12-07T01:39:12.925Z,31.47
2022-12-07T01:42:02.341Z,27.57
2022-12-07T01:45:37.322Z,29.57
2022-12-07T01:51:29.329Z,29.83
2022-12-07T01:57:07.055Z,28.67
2022-12-07T02:02:45.678Z,29.97
2022-12-07T02:08:20.756Z,27.10
2022-12-07T02:11:11.246Z,32.57
2022-12-07T02:14:00.415Z,30.80
2022-12-07T02:26:26.032Z,32.23
2022-12-07T02:32:06.834Z,30.40
2022-12-07T02:37:45.262Z,31.70
2022-12-07T02:40:37.318Z,29.23
2022-12-07T02:46:14.662Z,34.47
2022-12-07T02:49:02.870Z,31.50
2022-12-07T02:51:51.383Z,31.13
2022-12-07T02:57:41.296Z,32.67
2022-12-07T03:03:12.963Z,34.20
2022-12-07T03:08:57.656Z,36.00
2022-12-07T03:11:48.969Z,36.77
2022-12-07T03:17:30.013Z,35.60
2022-12-07T03:23:11.148Z,32.97
2022-12-07T03:28:45.306Z,35.37
2022-12-07T03:34:26.181Z,35.87
2022-12-07T03:40:08.430Z,31.60
2022-12-07T03:42:59.702Z,33.60
2022-12-07T03:48:39.366Z,34.57
2022-12-07T03:54:18.454Z,32.30
2022-12-07T03:59:55.895Z,30.37
2022-12-07T04:05:25.164Z,31.77
2022-12-07T04:11:03.967Z,31.67
2022-12-07T04:14:10.202Z,28.33
2022-12-07T04:19:44.509Z,31.17
2022-12-07T04:25:17.013Z,34.53
2022-12-07T04:28:05.687Z,30.80
2022-12-07T04:33:44.722Z,30.90
2022-12-07T04:39:26.348Z,30.63
2022-12-07T04:44:57.938Z,27.47
2022-12-07T04:47:46.185Z,28.57
2022-12-07T04:50:35.064Z,32.10
2022-12-07T04:56:05.641Z,30.20
2022-12-07T05:04:30.229Z,30.63
2022-12-07T05:07:20.697Z,31.37
2022-12-07T05:10:11.772Z,30.20
2022-12-07T05:13:00.051Z,29.30
2022-12-07T05:18:47.667Z,29.67
2022-12-07T05:24:27.151Z,31.60
2022-12-07T05:27:22.203Z,31.53
2022-12-07T05:30:12.296Z,32.20
2022-12-07T05:35:48.609Z,32.83
2022-12-07T05:41:43.703Z,33.33
2022-12-07T05:47:28.331Z,34.57
2022-12-07T05:52:56.141Z,32.53
2022-12-07T05:58:45.046Z,36.37
2022-12-07T06:04:16.213Z,39.87
2022-12-07T06:09:54.429Z,35.00
2022-12-07T06:12:44.043Z,32.30
2022-12-07T06:18:20.724Z,34.80
2022-12-07T06:23:55.737Z,33.50
2022-12-07T06:26:44.548Z,36.17
2022-12-07T06:32:13.440Z,38.37
2022-12-07T06:38:04.347Z,35.30
2022-12-07T06:43:41.203Z,42.87
2022-12-07T06:49:17.779Z,37.63
2022-12-07T06:52:06.533Z,38.13
2022-12-07T06:54:55.078Z,39.53
2022-12-07T07:00:26.830Z,41.23
2022-12-07T07:03:15.324Z,39.80
2022-12-07T07:08:55.710Z,40.87
2022-12-07T07:14:37.437Z,42.13
2022-12-07T07:20:16.328Z,41.47
2022-12-07T07:25:52.677Z,47.17
2022-12-07T07:28:42.132Z,45.23
2022-12-07T07:31:30.592Z,45.67
2022-12-07T07:37:04.917Z,46.27
2022-12-07T07:42:39.143Z,45.80
2022-12-07T07:48:16.414Z,45.43
2022-12-07T07:53:54.910Z,42.77
2022-12-07T07:56:43.244Z,40.40
2022-12-07T08:02:18.596Z,45.27
2022-12-07T08:05:08.427Z,48.00
2022-12-07T08:16:17.100Z,45.40
2022-12-07T08:21:50.143Z,51.63
2022-12-07T08:27:28.265Z,44.97
2022-12-07T08:33:05.445Z,47.37
2022-12-07T08:38:40.246Z,49.77
2022-12-07T08:44:17.241Z,50.83
2022-12-07T08:49:45.771Z,49.67
2022-12-07T08:55:20.518Z,49.90
2022-12-07T09:00:59.095Z,53.00
2022-12-07T09:06:33.353Z,48.37
2022-12-07T09:12:08.979Z,50.10
2022-12-07T09:17:46.555Z,53.43
2022-12-07T09:20:34.760Z,52.93
2022-12-07T09:26:10.796Z,53.73
2022-12-07T09:31:46.394Z,56.40
2022-12-07T09:37:21.179Z,55.40
2022-12-07T09:42:58.754Z,45.73
2022-12-07T09:48:38.351Z,44.77
2022-12-07T09:54:17.607Z,47.47
2022-12-07T09:59:55.791Z,44.53
2022-12-07T10:05:29.168Z,44.40
2022-12-07T10:11:08.115Z,45.87
2022-12-07T10:16:42.318Z,43.77
2022-12-07T10:19:31.779Z,41.07
2022-12-07T10:25:10.825Z,37.50
2022-12-07T10:33:37.714Z,41.23
2022-12-07T10:39:14.290Z,38.57
2022-12-07T10:44:44.906Z,40.27
2022-12-07T10:50:38.146Z,35.80
2022-12-07T10:53:42.788Z,37.20
2022-12-07T10:57:08.975Z,36.50
2022-12-07T11:00:10.414Z,31.73
2022-12-07T11:03:13.205Z,35.23
2022-12-07T11:09:08.482Z,30.40
2022-12-07T11:17:25.818Z,29.80
2022-12-07T11:23:13.046Z,24.87
2022-12-07T11:31:43.047Z,19.87
2022-12-07T11:34:35.745Z,23.00
2022-12-07T11:40:15.468Z,20.63
2022-12-07T11:45:57.783Z,25.07
2022-12-07T11:51:33.772Z,27.73
2022-12-07T11:57:08.759Z,32.47
2022-12-07T12:00:01.846Z,30.60
2022-12-07T12:02:53.311Z,28.40
2022-12-07T12:11:13.394Z,32.90
2022-12-07T12:20:26.910Z,28.83
2022-12-07T12:23:17.792Z,28.70
2022-12-07T12:26:08.155Z,30.10
2022-12-07T12:31:45.571Z,28.93
2022-12-07T12:34:37.644Z,27.90
2022-12-07T12:37:47.138Z,26.93
2022-12-07T12:40:51.076Z,26.03
2022-12-07T12:46:54.660Z,25.17
2022-12-07T12:53:07.073Z,22.40
2022-12-07T12:59:30.758Z,21.40
2022-12-07T13:08:06.500Z,20.33
2022-12-07T13:11:35.347Z,19.73
2022-12-07T13:18:05.978Z,16.87
2022-12-07T13:24:25.849Z,11.57
2022-12-07T13:35:09.146Z,17.00
2022-12-07T13:38:12.374Z,15.27
2022-12-07T13:44:42.451Z,11.43
2022-12-07T14:02:45.969Z,11.13
2022-12-07T14:05:44.869Z,11.43
2022-12-07T14:09:26.525Z,13.80
2022-12-07T14:43:30.354Z,20.20
2022-12-07T14:46:25.249Z,18.37
2022-12-07T14:57:45.456Z,17.73
2022-12-07T15:06:31.228Z,15.63
2022-12-07T15:23:55.150Z,17.57
2022-12-07T15:33:14.673Z,18.10
2022-12-07T15:36:03.270Z,16.67
2022-12-07T15:41:31.689Z,17.37
2022-12-07T15:47:08.744Z,17.50
2022-12-07T15:52:45.981Z,16.27
2022-12-07T15:58:14.846Z,13.70
2022-12-07T16:03:44.495Z,14.40
2022-12-07T16:06:33.375Z,13.73
2022-12-07T16:09:22.554Z,14.03
2022-12-07T16:14:52.084Z,14.20
2022-12-07T16:20:34.241Z,18.13
2022-12-07T16:26:09.622Z,18.63
2022-12-07T16:31:44.957Z,20.70
2022-12-07T16:34:33.174Z,18.03
2022-12-07T16:37:21.762Z,22.60
2022-12-07T16:40:16.462Z,19.57
2022-12-07T16:45:53.443Z,20.17
2022-12-07T16:51:22.521Z,18.93
2022-12-07T16:56:58.499Z,17.83
2022-12-07T17:02:28.939Z,18.57
2022-12-07T17:05:21.927Z,19.17
2022-12-07T17:11:02.422Z,19.60
2022-12-07T17:14:08.859Z,16.40
2022-12-07T17:19:46.902Z,19.47
2022-12-07T17:25:22.876Z,18.87
2022-12-07T17:30:52.067Z,23.33
2022-12-07T17:33:40.675Z,18.70
2022-12-07T17:36:30.107Z,18.43
2022-12-07T17:42:26.576Z,18.23
2022-12-07T17:45:15.879Z,19.70
2022-12-07T17:51:10.348Z,20.73
2022-12-07T17:56:47.133Z,19.73
2022-12-07T17:59:37.530Z,20.60
2022-12-07T18:02:35.185Z,25.00
2022-12-07T18:05:23.651Z,24.17
2022-12-07T18:08:12.019Z,24.10
2022-12-07T18:11:01.784Z,22.43
2022-12-07T18:13:50.420Z,20.10
2022-12-07T18:19:22.355Z,21.17
2022-12-07T18:25:01.744Z,21.30
2022-12-07T18:31:13.129Z,20.93
2022-12-07T18:36:15.365Z,19.57
2022-12-07T18:39:07.474Z,21.50
2022-12-07T18:44:36.846Z,20.70
2022-12-07T18:47:26.532Z,23.47
2022-12-07T18:50:16.025Z,23.17
2022-12-07T18:55:55.182Z,22.93
2022-12-07T19:01:32.122Z,22.83
2022-12-07T19:04:21.796Z,22.97
2022-12-07T19:09:53.802Z,21.00
2022-12-07T19:15:31.313Z,23.67
2022-12-07T19:18:19.425Z,26.10
2022-12-07T19:24:04.279Z,22.63
2022-12-07T19:29:41.386Z,23.17
2022-12-07T19:35:17.978Z,24.30
2022-12-07T19:38:06.786Z,24.67
2022-12-07T19:40:55.657Z,25.00
2022-12-07T19:46:35.990Z,20.63
2022-12-07T19:52:15.036Z,22.90
2022-12-07T19:57:50.198Z,25.30
2022-12-07T20:00:40.913Z,20.87
2022-12-07T20:06:19.434Z,23.67
2022-12-07T20:12:07.383Z,24.90
2022-12-07T20:14:55.628Z,27.17
2022-12-07T20:17:46.093Z,27.30
2022-12-07T20:23:23.715Z,24.30
2022-12-07T20:28:55.067Z,25.23
2022-12-07T20:31:44.560Z,26.20
2022-12-07T20:37:27.628Z,27.93
2022-12-07T20:43:10.519Z,26.17
2022-12-07T20:48:58.797Z,32.87
2022-12-07T20:54:29.558Z,25.37
2022-12-07T20:57:18.092Z,27.03
2022-12-07T21:03:11.062Z,25.83
2022-12-07T21:08:52.204Z,25.43
2022-12-07T21:11:41.374Z,25.33
2022-12-07T21:14:29.709Z,28.03
2022-12-07T21:17:18.161Z,27.23
2022-12-07T21:26:14.927Z,24.23
2022-12-07T21:29:03.560Z,25.37
2022-12-07T21:34:37.062Z,26.60
2022-12-07T21:40:32.616Z,24.70
2022-12-07T21:43:21.384Z,25.10
2022-12-07T21:49:04.740Z,23.93
2022-12-07T21:54:36.901Z,23.63
2022-12-07T21:57:25.082Z,24.87
2022-12-07T22:00:16.169Z,24.10
2022-12-07T22:05:52.330Z,23.17
2022-12-07T22:11:27.095Z,23.20
2022-12-07T22:17:06.727Z,26.17
2022-12-07T22:22:58.795Z,22.60
2022-12-07T22:25:48.165Z,24.30
2022-12-07T22:31:27.191Z,28.03
2022-12-07T22:37:04.163Z,26.50
2022-12-07T22:39:53.934Z,26.47
2022-12-07T22:42:43.458Z,25.87
2022-12-07T22:45:32.086Z,24.43
2022-12-07T22:48:20.811Z,25.77
2022-12-07T22:51:11.475Z,27.03
2022-12-07T22:54:02.729Z,26.47
2022-12-07T22:56:50.960Z,28.37
2022-12-07T23:02:18.513Z,26.47
2022-12-07T23:05:07.687Z,29.33
2022-12-07T23:07:59.245Z,25.97
2022-12-07T23:13:40.407Z,26.00
2022-12-07T23:19:15.530Z,27.37
2022-12-07T23:22:04.360Z,25.90
2022-12-07T23:27:41.608Z,28.43
2022-12-07T23:30:33.194Z,27.43
2022-12-07T23:33:24.132Z,24.17
2022-12-07T23:36:15.710Z,25.90
2022-12-07T23:41:57.388Z,23.67
2022-12-07T23:47:34.510Z,25.33
2022-12-07T23:53:04.079Z,24.83
2022-12-07T23:58:36.423Z,22.53
